Time;durP1;ratioP1;P1;durP2;ratioP2;P2;SDS_P1;SDS_P2;PMS_P1;PMS_P2;Temp;Humidity;BMP_temperature;BMP_pressure;BME280_temperature;BME280_humidity;BME280_pressure;Samples;Min_cycle;Max_cycle;Signal;HPM_P1;HPM_P2
2023/09/12 00:02:04;;;;;;;108.37;62.97;;;19.80;99.90;;;;;;5026214;28;20196;-51
2023/09/12 00:04:30;;;;;;;104.73;57.27;;;19.80;99.90;;;;;;5029420;28;20281;-51
2023/09/12 00:06:55;;;;;;;103.73;57.97;;;19.90;99.90;;;;;;5028498;28;20241;-51
2023/09/12 00:09:21;;;;;;;84.93;53.87;;;19.90;99.90;;;;;;5028700;28;20194;-51
2023/09/12 00:11:47;;;;;;;87.57;53.50;;;19.90;99.90;;;;;;5028618;28;20297;-51
2023/09/12 00:14:17;;;;;;;88.63;51.43;;;19.90;99.90;;;;;;5026623;28;20200;-51
2023/09/12 00:16:43;;;;;;;81.63;48.77;;;19.90;99.90;;;;;;5026245;28;20738;-50
2023/09/12 00:19:08;;;;;;;84.43;48.70;;;19.90;99.90;;;;;;5023337;28;20461;-50
2023/09/12 00:21:34;;;;;;;77.00;45.50;;;19.90;99.90;;;;;;5027011;28;20235;-50
2023/09/12 00:23:59;;;;;;;85.67;49.87;;;19.90;99.90;;;;;;5026501;28;20199;-49
2023/09/12 00:26:25;;;;;;;70.93;44.93;;;19.80;99.90;;;;;;5026866;28;20270;-48
2023/09/12 00:28:50;;;;;;;75.50;44.00;;;19.70;99.90;;;;;;5025920;28;20246;-50
2023/09/12 00:31:16;;;;;;;74.73;43.20;;;19.70;99.90;;;;;;5024942;28;20208;-51
2023/09/12 00:33:41;;;;;;;67.87;42.27;;;19.60;99.90;;;;;;5027646;28;20210;-49
2023/09/12 00:36:07;;;;;;;71.57;41.90;;;19.60;99.90;;;;;;5024506;28;20245;-51
2023/09/12 00:38:33;;;;;;;63.13;40.30;;;19.60;99.90;;;;;;5026622;28;20192;-49
2023/09/12 00:40:58;;;;;;;63.60;40.03;;;19.50;99.90;;;;;;5024996;28;20195;-49
2023/09/12 00:43:24;;;;;;;64.80;38.90;;;19.50;99.90;;;;;;5026367;28;20270;-50
2023/09/12 00:45:49;;;;;;;67.17;40.70;;;19.50;99.90;;;;;;5026446;28;20252;-49
2023/09/12 00:48:16;;;;;;;60.17;38.03;;;19.50;99.90;;;;;;5025044;28;20188;-49
2023/09/12 00:50:43;;;;;;;65.63;38.43;;;19.40;99.90;;;;;;5026259;28;20220;-50
2023/09/12 00:53:09;;;;;;;63.80;39.00;;;19.40;99.90;;;;;;5025263;28;20486;-49
2023/09/12 00:55:39;;;;;;;58.10;35.97;;;19.40;99.90;;;;;;5027214;28;20462;-50
2023/09/12 00:58:05;;;;;;;60.50;39.17;;;19.40;99.90;;;;;;5025700;28;20278;-50
2023/09/12 01:00:30;;;;;;;66.07;38.03;;;19.40;99.90;;;;;;5026772;28;20532;-50
2023/09/12 01:02:58;;;;;;;60.03;37.60;;;19.30;99.90;;;;;;5025795;28;20647;-50
2023/09/12 01:05:24;;;;;;;64.87;38.00;;;19.30;99.90;;;;;;5023161;28;20202;-50
2023/09/12 01:07:49;;;;;;;58.63;37.60;;;19.30;99.90;;;;;;5025379;28;20454;-50
2023/09/12 01:10:15;;;;;;;62.33;37.97;;;19.30;99.90;;;;;;5024322;28;20528;-51
2023/09/12 01:12:41;;;;;;;53.30;34.17;;;19.30;99.90;;;;;;5026580;28;20191;-49
2023/09/12 01:15:13;;;;;;;61.83;37.90;;;19.30;99.90;;;;;;5025663;28;20187;-50
2023/09/12 01:17:40;;;;;;;55.87;35.80;;;19.20;99.90;;;;;;5023238;28;20663;-50
2023/09/12 01:20:10;;;;;;;57.93;38.93;;;19.20;99.90;;;;;;5025049;28;20965;-50
2023/09/12 01:22:56;;;;;;;54.03;38.20;;;19.20;99.90;;;;;;5025948;28;20471;-50
2023/09/12 01:25:49;;;;;;;54.70;34.40;;;19.20;99.90;;;;;;5025304;28;20454;-50
2023/09/12 01:28:16;;;;;;;59.00;35.87;;;19.20;99.90;;;;;;5024967;28;20442;-51
2023/09/12 01:30:43;;;;;;;58.43;36.70;;;19.20;99.90;;;;;;5022976;28;20481;-50
2023/09/12 01:33:10;;;;;;;63.27;39.40;;;19.20;99.90;;;;;;5024150;28;20484;-50
2023/09/12 01:35:35;;;;;;;50.90;34.70;;;19.20;99.90;;;;;;5024374;28;20442;-50
2023/09/12 01:38:01;;;;;;;58.30;33.90;;;19.10;99.90;;;;;;5026051;28;20454;-50
2023/09/12 01:40:39;;;;;;;51.13;32.70;;;19.10;99.90;;;;;;5024216;28;20180;-50
2023/09/12 01:43:07;;;;;;;57.93;36.23;;;19.10;99.90;;;;;;5023514;28;20191;-51
2023/09/12 01:45:33;;;;;;;59.40;36.03;;;19.10;99.90;;;;;;5024495;28;20450;-50
2023/09/12 01:48:00;;;;;;;54.57;34.50;;;19.10;99.90;;;;;;5025189;28;20445;-50
2023/09/12 01:50:28;;;;;;;59.77;37.40;;;19.10;99.90;;;;;;5024663;28;20507;-50
2023/09/12 01:52:54;;;;;;;46.87;34.20;;;19.10;99.90;;;;;;5023056;28;20445;-50
2023/09/12 01:55:20;;;;;;;58.00;38.40;;;19.10;99.90;;;;;;5026456;28;20792;-51
2023/09/12 01:57:47;;;;;;;57.03;35.80;;;19.10;99.90;;;;;;5023451;28;20438;-50
2023/09/12 02:00:13;;;;;;;60.67;33.50;;;19.10;99.90;;;;;;5026282;28;20450;-50
2023/09/12 02:02:38;;;;;;;55.07;34.40;;;19.10;99.90;;;;;;5026025;28;20442;-50
2023/09/12 02:05:18;;;;;;;55.70;33.40;;;19.10;99.90;;;;;;5025456;28;20516;-50
2023/09/12 02:07:44;;;;;;;63.60;38.17;;;19.10;99.90;;;;;;5025208;28;20190;-50
2023/09/12 02:10:09;;;;;;;58.87;37.57;;;19.10;99.90;;;;;;5023095;28;20627;-50
2023/09/12 02:12:35;;;;;;;71.33;40.27;;;19.10;99.90;;;;;;5023810;28;20541;-49
2023/09/12 02:15:16;;;;;;;66.93;41.73;;;19.10;99.90;;;;;;5025171;28;20237;-50
2023/09/12 02:17:41;;;;;;;75.43;40.97;;;19.10;99.90;;;;;;5026646;28;20517;-50
2023/09/12 02:20:08;;;;;;;57.77;35.67;;;19.10;99.90;;;;;;5025563;28;20541;-49
2023/09/12 02:22:34;;;;;;;61.37;40.07;;;19.10;99.90;;;;;;5023709;28;20668;-48
2023/09/12 02:24:59;;;;;;;57.87;36.73;;;19.10;99.90;;;;;;5025442;28;20445;-48
2023/09/12 02:27:25;;;;;;;60.90;39.17;;;19.10;99.90;;;;;;5022279;28;20246;-51
2023/09/12 02:29:51;;;;;;;56.10;38.00;;;19.10;99.90;;;;;;5026412;28;20188;-50
2023/09/12 02:32:16;;;;;;;66.90;37.77;;;19.10;99.90;;;;;;5022567;28;20201;-49
2023/09/12 02:34:42;;;;;;;64.17;38.47;;;19.10;99.90;;;;;;5024957;28;20211;-49
2023/09/12 02:37:07;;;;;;;59.10;36.80;;;19.00;99.90;;;;;;5022229;28;20206;-50
2023/09/12 02:39:33;;;;;;;69.70;40.13;;;19.10;99.90;;;;;;5024089;28;20245;-50
2023/09/12 02:41:58;;;;;;;61.37;39.70;;;19.00;99.90;;;;;;5024450;28;20187;-48
2023/09/12 02:44:24;;;;;;;61.43;40.87;;;19.00;99.90;;;;;;5023281;28;20610;-50
2023/09/12 02:46:50;;;;;;;60.57;38.07;;;19.10;99.90;;;;;;5025052;28;20518;-50
2023/09/12 02:49:16;;;;;;;55.80;37.90;;;19.10;99.90;;;;;;5025138;28;20321;-50
2023/09/12 02:51:42;;;;;;;62.70;36.00;;;19.00;99.90;;;;;;5024792;28;20556;-50
2023/09/12 02:54:07;;;;;;;57.20;38.07;;;19.10;99.90;;;;;;5024543;28;20290;-50
2023/09/12 02:56:33;;;;;;;66.23;41.23;;;19.10;99.90;;;;;;5022944;28;20219;-50
2023/09/12 02:58:58;;;;;;;66.80;41.50;;;19.10;99.90;;;;;;5024544;28;20198;-49
2023/09/12 03:01:27;;;;;;;68.20;41.90;;;19.10;99.90;;;;;;5021931;28;20263;-49
2023/09/12 03:03:53;;;;;;;63.20;39.67;;;19.10;99.90;;;;;;5025151;28;20199;-50
2023/09/12 03:06:19;;;;;;;73.33;42.17;;;19.10;99.90;;;;;;5022575;28;20496;-50
2023/09/12 03:08:46;;;;;;;76.67;46.30;;;19.20;99.90;;;;;;5025041;28;20477;-50
2023/09/12 03:11:12;;;;;;;78.53;44.50;;;19.20;99.90;;;;;;5024804;28;20517;-50
2023/09/12 03:13:39;;;;;;;78.13;44.67;;;19.20;99.90;;;;;;5021710;28;20485;-49
2023/09/12 03:16:04;;;;;;;76.17;46.27;;;19.20;99.90;;;;;;5024942;28;20648;-49
2023/09/12 03:18:30;;;;;;;84.37;48.20;;;19.20;99.90;;;;;;5026803;28;20438;-50
2023/09/12 03:20:56;;;;;;;81.47;47.70;;;19.20;99.90;;;;;;5029170;28;20191;-49
2023/09/12 03:23:21;;;;;;;81.03;49.90;;;19.20;99.90;;;;;;5022950;28;20239;-50
2023/09/12 03:25:47;;;;;;;77.37;47.07;;;19.20;99.90;;;;;;5029180;28;20179;-50
2023/09/12 03:28:13;;;;;;;90.13;51.40;;;19.20;99.90;;;;;;5027378;28;20547;-49
2023/09/12 03:30:39;;;;;;;72.53;45.83;;;19.20;99.90;;;;;;5028108;28;20221;-49
2023/09/12 03:33:05;;;;;;;85.47;47.57;;;19.20;99.90;;;;;;5027803;28;20191;-50
2023/09/12 03:35:34;;;;;;;76.70;46.97;;;19.20;99.90;;;;;;5026559;28;20486;-49
2023/09/12 03:38:00;;;;;;;88.43;48.07;;;19.20;99.90;;;;;;5029018;28;20449;-49
2023/09/12 03:40:29;;;;;;;79.97;47.43;;;19.20;99.90;;;;;;5028377;28;21099;-49
2023/09/12 03:42:55;;;;;;;94.37;51.40;;;19.20;99.90;;;;;;5026893;28;20441;-50
2023/09/12 03:45:20;;;;;;;79.07;48.93;;;19.20;99.90;;;;;;5027844;28;20430;-49
2023/09/12 03:47:46;;;;;;;87.57;49.07;;;19.20;99.90;;;;;;5027556;28;20237;-49
2023/09/12 03:50:13;;;;;;;88.60;48.97;;;19.20;99.90;;;;;;5028819;28;20679;-49
2023/09/12 03:52:39;;;;;;;85.60;47.13;;;19.20;99.90;;;;;;5040673;28;20783;-49
2023/09/12 03:55:05;;;;;;;74.30;46.00;;;19.20;99.90;;;;;;5028412;28;20472;-49
2023/09/12 03:57:31;;;;;;;80.60;47.27;;;19.20;99.90;;;;;;5027234;28;20938;-49
2023/09/12 03:59:57;;;;;;;85.70;49.20;;;19.20;99.90;;;;;;5027739;28;20203;-49
2023/09/12 04:02:22;;;;;;;76.33;46.27;;;19.10;99.90;;;;;;5025783;28;20812;-49
2023/09/12 04:04:48;;;;;;;94.23;52.37;;;19.20;99.90;;;;;;5026694;28;20211;-49
2023/09/12 04:07:14;;;;;;;80.40;46.00;;;19.20;99.90;;;;;;5028081;28;20219;-49
2023/09/12 04:09:39;;;;;;;80.63;47.40;;;19.10;99.90;;;;;;5027675;28;20232;-48
2023/09/12 04:12:06;;;;;;;83.83;48.20;;;19.10;99.90;;;;;;5026312;28;20223;-49
2023/09/12 04:14:32;;;;;;;88.93;51.83;;;19.10;99.90;;;;;;5026278;28;20188;-48
2023/09/12 04:16:58;;;;;;;91.03;48.57;;;19.10;99.90;;;;;;5025929;28;21211;-49
2023/09/12 04:19:24;;;;;;;85.00;49.37;;;19.10;99.90;;;;;;5027831;28;20638;-49
2023/09/12 04:21:50;;;;;;;81.90;46.03;;;19.10;99.90;;;;;;5025308;28;20239;-49
2023/09/12 04:24:17;;;;;;;96.70;53.67;;;19.10;99.90;;;;;;5027194;28;20441;-48
2023/09/12 04:26:43;;;;;;;83.10;49.27;;;19.00;99.90;;;;;;5027882;28;20206;-49
2023/09/12 04:29:09;;;;;;;94.67;52.17;;;19.10;99.90;;;;;;5027599;28;20488;-48
2023/09/12 04:31:35;;;;;;;88.50;50.30;;;19.00;99.90;;;;;;5024948;28;20894;-48
2023/09/12 04:34:00;;;;;;;90.00;49.93;;;19.00;99.90;;;;;;5026591;28;20187;-49
2023/09/12 04:36:26;;;;;;;84.27;49.10;;;19.00;99.90;;;;;;5028048;28;20278;-48
2023/09/12 04:38:52;;;;;;;93.93;49.83;;;19.00;99.90;;;;;;5024875;28;20191;-49
2023/09/12 04:41:17;;;;;;;101.73;54.07;;;19.00;99.90;;;;;;5027147;28;20701;-49
2023/09/12 04:43:46;;;;;;;104.07;54.27;;;19.00;99.90;;;;;;5025895;28;20194;-49
2023/09/12 04:46:12;;;;;;;105.13;54.30;;;19.00;99.90;;;;;;5027733;28;20237;-49
2023/09/12 04:48:39;;;;;;;114.30;56.30;;;19.00;99.90;;;;;;5024889;28;20465;-49
2023/09/12 04:51:04;;;;;;;114.33;60.77;;;19.00;99.90;;;;;;5026027;28;20480;-51
2023/09/12 04:53:36;;;;;;;110.70;57.27;;;19.00;99.90;;;;;;5025157;28;20451;-48
2023/09/12 04:56:02;;;;;;;111.77;57.37;;;19.00;99.90;;;;;;5024993;28;20191;-48
2023/09/12 04:58:28;;;;;;;114.20;57.70;;;19.00;99.90;;;;;;5027257;28;20839;-49
2023/09/12 05:00:55;;;;;;;93.60;52.70;;;19.00;99.90;;;;;;5025701;28;20442;-47
2023/09/12 05:03:21;;;;;;;116.70;56.13;;;18.90;99.90;;;;;;5026221;28;20187;-48
2023/09/12 05:05:48;;;;;;;127.70;59.20;;;18.90;99.90;;;;;;5025450;28;20434;-48
2023/09/12 05:08:13;;;;;;;121.13;56.10;;;18.90;99.90;;;;;;5024468;28;20194;-48
2023/09/12 05:10:39;;;;;;;117.67;55.60;;;18.90;99.90;;;;;;5027231;28;20474;-49
2023/09/12 05:13:05;;;;;;;107.73;54.73;;;19.00;99.90;;;;;;5026296;28;20241;-47
2023/09/12 05:15:31;;;;;;;117.30;60.47;;;19.00;99.90;;;;;;5026316;28;20718;-48
2023/09/12 05:17:56;;;;;;;113.47;56.40;;;19.00;99.90;;;;;;5025628;28;20549;-48
2023/09/12 05:20:22;;;;;;;100.13;53.17;;;19.00;99.90;;;;;;5027323;28;20193;-48
2023/09/12 05:22:48;;;;;;;110.63;54.83;;;19.00;99.90;;;;;;5024457;28;20730;-47
2023/09/12 05:25:13;;;;;;;121.33;56.13;;;19.00;99.90;;;;;;5026384;28;20238;-47
2023/09/12 05:27:39;;;;;;;110.00;53.87;;;19.00;99.90;;;;;;5023853;28;20196;-48
2023/09/12 05:30:05;;;;;;;124.03;58.80;;;19.00;99.90;;;;;;5028779;28;20194;-49
2023/09/12 05:32:31;;;;;;;113.97;55.33;;;19.00;99.90;;;;;;5025008;28;20275;-48
2023/09/12 05:34:56;;;;;;;115.93;58.03;;;19.00;99.90;;;;;;5025627;28;20450;-48
2023/09/12 05:37:22;;;;;;;97.97;51.80;;;19.00;99.90;;;;;;5025336;28;20270;-48
2023/09/12 05:39:47;;;;;;;115.13;56.57;;;19.00;99.90;;;;;;5022296;28;20223;-48
2023/09/12 05:42:14;;;;;;;92.73;47.37;;;19.00;99.90;;;;;;5025661;28;20230;-46
2023/09/12 05:44:42;;;;;;;111.57;51.20;;;19.00;99.90;;;;;;5023448;28;20282;-47
2023/09/12 05:47:08;;;;;;;117.63;52.37;;;19.00;99.90;;;;;;5027607;28;20968;-48
2023/09/12 05:49:34;;;;;;;101.03;54.10;;;19.00;99.90;;;;;;5024565;28;20449;-48
2023/09/12 05:51:59;;;;;;;121.20;55.77;;;19.00;99.90;;;;;;5024744;28;20254;-48
2023/09/12 05:54:25;;;;;;;127.17;58.00;;;19.00;99.90;;;;;;5023574;28;20587;-48
2023/09/12 05:56:52;;;;;;;112.73;55.00;;;19.00;99.90;;;;;;5023368;28;20608;-48
2023/09/12 05:59:18;;;;;;;111.07;52.90;;;19.10;99.90;;;;;;5026109;28;20198;-49
2023/09/12 06:01:43;;;;;;;126.27;59.80;;;19.10;99.90;;;;;;5025546;28;20445;-51
2023/09/12 06:04:09;;;;;;;114.37;54.23;;;19.10;99.90;;;;;;5025050;28;20558;-49
2023/09/12 06:06:35;;;;;;;102.27;51.50;;;19.10;99.90;;;;;;5027336;28;20279;-49
2023/09/12 06:09:00;;;;;;;111.50;55.13;;;19.20;99.90;;;;;;5022905;28;20192;-50
2023/09/12 06:11:26;;;;;;;110.13;53.87;;;19.20;99.90;;;;;;5024431;28;20218;-49
2023/09/12 06:13:51;;;;;;;112.30;54.10;;;19.20;99.90;;;;;;5024386;28;20188;-49
2023/09/12 06:16:17;;;;;;;92.70;47.57;;;19.30;99.90;;;;;;5024324;28;20183;-50
2023/09/12 06:18:42;;;;;;;100.23;49.27;;;19.30;99.90;;;;;;5020095;28;20278;-50
2023/09/12 06:21:08;;;;;;;111.53;54.43;;;19.40;99.90;;;;;;5026172;28;20249;-49
2023/09/12 06:23:34;;;;;;;116.43;54.57;;;19.50;99.90;;;;;;5027048;28;20199;-49
2023/09/12 06:26:00;;;;;;;102.03;49.13;;;19.50;99.90;;;;;;5025332;28;20703;-50
2023/09/12 06:28:26;;;;;;;117.50;55.83;;;19.60;99.90;;;;;;5023838;28;20447;-50
2023/09/12 06:30:52;;;;;;;109.50;54.07;;;19.60;99.90;;;;;;5024184;28;20234;-49
2023/09/12 06:33:18;;;;;;;98.73;51.30;;;19.60;99.90;;;;;;5026186;28;20953;-49
2023/09/12 06:35:43;;;;;;;104.87;51.60;;;19.60;99.90;;;;;;5021177;28;20651;-48
2023/09/12 06:38:09;;;;;;;96.23;46.93;;;19.60;99.90;;;;;;5025081;28;20264;-48
2023/09/12 06:40:34;;;;;;;98.43;50.63;;;19.70;99.90;;;;;;5023981;28;20206;-49
2023/09/12 06:43:00;;;;;;;95.67;47.80;;;19.70;99.90;;;;;;5024682;28;20195;-50
2023/09/12 06:45:25;;;;;;;97.30;50.73;;;19.70;99.90;;;;;;5024053;28;20184;-51
2023/09/12 06:47:51;;;;;;;97.33;51.50;;;19.70;99.90;;;;;;5022022;28;20191;-50
2023/09/12 06:50:16;;;;;;;106.70;54.77;;;19.70;99.90;;;;;;5022380;28;20254;-50
2023/09/12 06:52:42;;;;;;;106.97;53.73;;;19.70;99.90;;;;;;5022310;28;20195;-47
2023/09/12 06:55:08;;;;;;;88.37;47.53;;;19.70;99.90;;;;;;5021544;28;20225;-50
2023/09/12 06:57:33;;;;;;;111.03;54.77;;;19.70;99.90;;;;;;5023648;28;20558;-49
2023/09/12 06:59:59;;;;;;;109.93;53.87;;;19.80;99.90;;;;;;5027088;28;20179;-50
2023/09/12 07:02:26;;;;;;;103.10;52.93;;;19.80;99.90;;;;;;5023542;28;20184;-50
2023/09/12 07:04:52;;;;;;;88.07;50.63;;;19.80;99.90;;;;;;5023949;28;20194;-50
2023/09/12 07:07:17;;;;;;;94.47;49.60;;;19.90;99.90;;;;;;5023660;28;20450;-48
2023/09/12 07:09:43;;;;;;;93.50;49.17;;;19.90;99.90;;;;;;5025080;28;20256;-50
2023/09/12 07:12:09;;;;;;;89.20;48.03;;;19.90;99.90;;;;;;5023584;28;20226;-50
2023/09/12 07:14:37;;;;;;;77.90;48.20;;;20.00;99.90;;;;;;5024271;28;20228;-52
2023/09/12 07:17:04;;;;;;;85.70;49.90;;;20.00;99.90;;;;;;5026205;28;20469;-50
2023/09/12 07:19:29;;;;;;;88.77;48.53;;;19.90;99.90;;;;;;5025974;28;20430;-50
2023/09/12 07:21:55;;;;;;;77.33;45.30;;;19.90;99.90;;;;;;5022646;28;20469;-51
2023/09/12 07:24:25;;;;;;;90.97;49.10;;;19.90;99.90;;;;;;5024025;28;20188;-49
2023/09/12 07:26:51;;;;;;;76.43;44.93;;;19.90;99.90;;;;;;5024953;28;20443;-51
2023/09/12 07:29:16;;;;;;;88.80;49.70;;;19.90;99.90;;;;;;5025608;28;20488;-51
2023/09/12 07:31:42;;;;;;;94.80;52.10;;;19.90;99.90;;;;;;5023699;28;20215;-50
2023/09/12 07:34:08;;;;;;;85.43;49.33;;;19.90;99.90;;;;;;5021669;28;20187;-51
2023/09/12 07:36:33;;;;;;;86.17;50.43;;;20.00;99.90;;;;;;5022676;28;20284;-49
2023/09/12 07:38:59;;;;;;;83.30;50.93;;;20.00;99.90;;;;;;5022395;28;20952;-49
2023/09/12 07:41:25;;;;;;;90.50;49.57;;;20.00;99.90;;;;;;5023498;28;20653;-50
2023/09/12 07:43:50;;;;;;;84.07;46.33;;;19.90;99.90;;;;;;5023303;28;20215;-51
2023/09/12 07:46:22;;;;;;;100.80;58.43;;;20.00;99.90;;;;;;5025055;28;20183;-50
2023/09/12 07:48:47;;;;;;;84.37;50.03;;;20.00;99.90;;;;;;5022211;28;20561;-49
2023/09/12 07:51:17;;;;;;;73.70;46.10;;;20.10;99.90;;;;;;5026474;28;20485;-50
2023/09/12 07:53:43;;;;;;;75.20;44.20;;;20.10;99.90;;;;;;5023243;28;20196;-50
2023/09/12 07:56:12;;;;;;;82.30;46.23;;;20.20;99.90;;;;;;5025435;28;20449;-48
2023/09/12 07:58:38;;;;;;;77.47;45.43;;;20.30;99.90;;;;;;5021345;28;20297;-50
2023/09/12 08:01:08;;;;;;;68.23;44.17;;;20.40;99.90;;;;;;5024675;28;20437;-49
2023/09/12 08:03:39;;;;;;;70.30;42.47;;;20.60;99.90;;;;;;5028175;28;20266;-51
2023/09/12 08:06:05;;;;;;;67.50;44.30;;;20.70;99.90;;;;;;5028247;28;20434;-50
2023/09/12 08:08:31;;;;;;;62.93;41.53;;;20.80;99.90;;;;;;5018566;28;20484;-51
2023/09/12 08:10:57;;;;;;;74.60;43.27;;;20.90;99.90;;;;;;5020318;28;20310;-51
2023/09/12 08:13:25;;;;;;;68.83;43.37;;;21.00;99.90;;;;;;5025318;28;20461;-50
2023/09/12 08:15:51;;;;;;;61.80;42.30;;;21.00;99.90;;;;;;5027651;28;20485;-50
2023/09/12 08:18:16;;;;;;;58.53;37.40;;;21.00;99.90;;;;;;5016995;28;20533;-51
2023/09/12 08:20:43;;;;;;;59.90;42.20;;;21.00;99.90;;;;;;5024788;28;20202;-49
2023/09/12 08:23:09;;;;;;;65.97;43.60;;;21.10;99.90;;;;;;5021510;28;20289;-50
2023/09/12 08:25:34;;;;;;;54.63;38.27;;;21.10;99.90;;;;;;5017075;28;20648;-50
2023/09/12 08:28:00;;;;;;;64.60;42.77;;;21.20;99.90;;;;;;5027736;28;20195;-51
2023/09/12 08:30:25;;;;;;;57.67;38.60;;;21.40;99.90;;;;;;5025327;28;20215;-50
2023/09/12 08:32:51;;;;;;;47.13;33.33;;;21.60;94.20;;;;;;5029246;28;20227;-51
2023/09/12 08:35:17;;;;;;;56.80;37.00;;;21.70;1.00;;;;;;5025251;28;20194;-52
2023/09/12 08:37:43;;;;;;;50.67;34.70;;;21.70;1.00;;;;;;5026736;28;20184;-49
2023/09/12 08:40:10;;;;;;;56.40;35.03;;;22.00;1.00;;;;;;5027105;28;20245;-51
2023/09/12 08:42:42;;;;;;;50.40;34.20;;;22.50;1.00;;;;;;5026041;28;20529;-50
2023/09/12 08:45:13;;;;;;;38.20;29.40;;;23.00;99.90;;;;;;5024371;28;20499;-51
2023/09/12 08:47:41;;;;;;;44.70;31.83;;;23.60;99.90;;;;;;5027012;28;20473;-52
2023/09/12 08:50:11;;;;;;;42.53;31.93;;;24.10;99.90;;;;;;5026786;28;20470;-52
2023/09/12 08:52:36;;;;;;;39.43;30.40;;;24.50;1.00;;;;;;5025930;28;20438;-48
2023/09/12 08:55:03;;;;;;;34.10;27.20;;;24.90;99.90;;;;;;5023758;28;20827;-48
2023/09/12 08:57:32;;;;;;;32.00;26.10;;;24.80;94.00;;;;;;5027752;28;20184;-49
2023/09/12 09:00:05;;;;;;;34.00;26.80;;;24.40;1.00;;;;;;5024611;28;20989;-49
2023/09/12 09:02:32;;;;;;;34.67;25.90;;;23.80;45.80;;;;;;5020638;28;20443;-49
2023/09/12 09:05:00;;;;;;;37.53;26.00;;;23.40;99.80;;;;;;5022690;28;20880;-51
2023/09/12 09:07:27;;;;;;;39.43;28.20;;;23.10;99.90;;;;;;5025415;28;20922;-50
2023/09/12 09:09:53;;;;;;;37.13;27.53;;;22.80;99.90;;;;;;5026615;28;20457;-50
2023/09/12 09:12:19;;;;;;;36.73;27.73;;;22.50;99.90;;;;;;5025226;28;21699;-51
2023/09/12 09:14:45;;;;;;;34.80;26.00;;;22.30;1.00;;;;;;5026092;28;20490;-51
2023/09/12 09:17:12;;;;;;;35.10;27.60;;;22.20;1.00;;;;;;5027005;28;20481;-50
2023/09/12 09:19:43;;;;;;;37.43;27.27;;;22.10;1.00;;;;;;5025482;28;20535;-49
2023/09/12 09:22:08;;;;;;;38.50;26.00;;;22.20;1.00;;;;;;5027332;28;20528;-50
2023/09/12 09:24:34;;;;;;;38.67;27.03;;;22.20;1.00;;;;;;5025559;28;20462;-50
2023/09/12 09:27:00;;;;;;;36.50;27.40;;;22.30;1.00;;;;;;5028028;28;20209;-50
2023/09/12 09:29:31;;;;;;;30.53;24.57;;;22.40;1.00;;;;;;5024093;28;20656;-50
2023/09/12 09:31:59;;;;;;;33.17;25.63;;;22.40;1.00;;;;;;5024731;28;20474;-48
2023/09/12 09:34:24;;;;;;;36.03;28.10;;;22.50;1.00;;;;;;5026900;28;20525;-50
2023/09/12 09:36:52;;;;;;;36.53;25.60;;;22.50;99.90;;;;;;5025260;28;20446;-49
2023/09/12 09:39:19;;;;;;;37.70;26.07;;;22.40;99.90;;;;;;5026843;28;20191;-51
2023/09/12 09:41:48;;;;;;;32.93;24.80;;;22.40;1.00;;;;;;5025575;28;20453;-49
2023/09/12 09:44:14;;;;;;;36.23;27.47;;;22.40;1.00;;;;;;5026312;28;20434;-50
2023/09/12 09:46:43;;;;;;;36.63;26.43;;;22.40;2.20;;;;;;5025098;28;20855;-51
2023/09/12 09:49:11;;;;;;;36.63;27.80;;;22.50;1.00;;;;;;5024755;28;20552;-50
2023/09/12 09:51:43;;;;;;;34.97;26.10;;;22.50;99.90;;;;;;5026867;28;20838;-51
2023/09/12 09:54:09;;;;;;;33.07;25.60;;;22.60;1.00;;;;;;5026585;28;20464;-51
2023/09/12 09:56:48;;;;;;;38.67;28.70;;;22.70;1.00;;;;;;5027425;28;20462;-50
2023/09/12 09:59:20;;;;;;;32.60;23.93;;;22.70;1.00;;;;;;5023685;28;21003;-51
2023/09/12 10:01:46;;;;;;;33.40;24.30;;;22.70;1.00;;;;;;5024419;28;20437;-51
2023/09/12 10:04:12;;;;;;;31.57;23.57;;;22.60;99.90;;;;;;5025652;28;20875;-50
2023/09/12 10:06:39;;;;;;;30.23;23.87;;;22.50;99.90;;;;;;5023562;28;20283;-51
2023/09/12 10:09:15;;;;;;;31.03;23.73;;;22.40;99.90;;;;;;5024493;28;20446;-50
2023/09/12 10:11:43;;;;;;;29.83;23.50;;;22.40;1.00;;;;;;5025549;28;20568;-49
2023/09/12 10:14:09;;;;;;;32.87;23.60;;;22.30;1.00;;;;;;5025785;28;20945;-51
2023/09/12 10:16:38;;;;;;;28.97;21.83;;;22.20;1.00;;;;;;5023634;28;20446;-51
2023/09/12 10:19:42;;;;;;;34.20;25.20;;;22.00;1.00;;;;;;5024033;28;20458;-50
2023/09/12 10:22:23;;;;;;;36.13;24.70;;;21.70;1.00;;;;;;5022531;28;20547;-49
2023/09/12 10:24:50;;;;;;;32.37;25.50;;;21.60;1.00;;;;;;5022880;28;20817;-51
2023/09/12 10:27:18;;;;;;;29.60;23.60;;;21.50;6.40;;;;;;5025061;28;20461;-51
2023/09/12 10:29:47;;;;;;;35.67;25.47;;;21.40;99.90;;;;;;5024644;28;20478;-51
2023/09/12 10:32:14;;;;;;;40.00;29.90;;;21.40;99.90;;;;;;5025864;28;20500;-51
2023/09/12 10:34:44;;;;;;;37.23;29.27;;;21.40;1.00;;;;;;5024281;28;20490;-51
2023/09/12 10:37:12;;;;;;;40.53;29.97;;;21.40;1.00;;;;;;5022985;28;21008;-50
2023/09/12 10:39:38;;;;;;;35.10;25.80;;;21.50;99.90;;;;;;5024920;28;20434;-50
2023/09/12 10:42:05;;;;;;;37.00;27.20;;;21.70;99.90;;;;;;5025066;28;20511;-49
2023/09/12 10:44:31;;;;;;;39.93;29.87;;;21.80;99.90;;;;;;5025821;28;20820;-51
2023/09/12 10:46:58;;;;;;;38.17;29.57;;;21.90;1.00;;;;;;5024868;28;20450;-51
2023/09/12 10:49:23;;;;;;;44.13;28.90;;;22.00;99.90;;;;;;5026099;28;20842;-51
2023/09/12 10:51:49;;;;;;;47.13;31.40;;;22.00;99.90;;;;;;5022681;28;20474;-51
2023/09/12 10:54:23;;;;;;;42.77;30.77;;;22.10;99.90;;;;;;5024759;28;20198;-50
2023/09/12 10:57:05;;;;;;;42.67;30.13;;;22.10;1.00;;;;;;5024904;28;20434;-51
2023/09/12 10:59:35;;;;;;;42.13;30.50;;;22.00;1.00;;;;;;5027244;28;20810;-50
2023/09/12 11:02:29;;;;;;;43.40;32.20;;;21.90;19.80;;;;;;5022549;28;20438;-50
2023/09/12 11:04:55;;;;;;;37.77;28.70;;;21.80;99.90;;;;;;5024347;28;20434;-49
2023/09/12 11:07:36;;;;;;;38.30;29.10;;;21.80;99.90;;;;;;5024314;28;20461;-51
2023/09/12 11:10:18;;;;;;;39.93;30.57;;;21.80;99.90;;;;;;5025664;28;21088;-51
2023/09/12 11:12:51;;;;;;;44.33;29.50;;;21.90;95.60;;;;;;5025228;28;20461;-50
2023/09/12 11:15:19;;;;;;;37.37;29.20;;;22.00;1.00;;;;;;5023934;28;20938;-49
2023/09/12 11:17:46;;;;;;;40.00;30.60;;;22.00;1.00;;;;;;5026289;28;20537;-50
2023/09/12 11:20:13;;;;;;;37.57;28.80;;;21.90;1.00;;;;;;5022968;28;20443;-51
2023/09/12 11:22:40;;;;;;;38.40;29.30;;;21.90;3.20;;;;;;5024755;28;20477;-52
2023/09/12 11:25:17;;;;;;;38.27;30.50;;;21.90;24.70;;;;;;5022597;28;20536;-52
2023/09/12 11:28:06;;;;;;;38.70;30.40;;;21.80;99.90;;;;;;5018611;28;20445;-51
2023/09/12 11:30:32;;;;;;;43.00;32.83;;;21.80;99.90;;;;;;5017033;28;20470;-51
2023/09/12 11:32:59;;;;;;;45.73;32.30;;;21.80;99.90;;;;;;5020425;28;20534;-52
2023/09/12 11:35:27;;;;;;;46.53;35.13;;;21.90;99.90;;;;;;5019717;28;20959;-52
2023/09/12 11:37:58;;;;;;;45.13;33.07;;;21.80;99.90;;;;;;5014737;28;20446;-52
2023/09/12 11:40:33;;;;;;;45.63;36.00;;;21.80;99.90;;;;;;5027616;28;20460;-52
2023/09/12 11:42:59;;;;;;;47.23;35.40;;;21.70;1.00;;;;;;5027217;28;20453;-52
2023/09/12 11:45:25;;;;;;;45.43;33.67;;;21.70;99.90;;;;;;5021310;28;20531;-49
2023/09/12 11:47:51;;;;;;;52.23;39.20;;;21.70;1.00;;;;;;5025457;28;20442;-51
2023/09/12 11:50:33;;;;;;;47.80;36.27;;;21.60;1.00;;;;;;5016273;28;20799;-50
2023/09/12 11:53:09;;;;;;;54.67;37.07;;;21.60;1.00;;;;;;5028437;28;20214;-50
2023/09/12 11:55:44;;;;;;;47.30;35.20;;;21.60;1.00;;;;;;5024325;28;20446;-51
2023/09/12 11:58:14;;;;;;;46.20;34.20;;;21.60;1.00;;;;;;5024025;28;20472;-50
2023/09/12 12:00:47;;;;;;;43.73;31.30;;;21.50;1.00;;;;;;5024663;28;20449;-50
2023/09/12 12:03:14;;;;;;;46.43;34.70;;;21.60;1.00;;;;;;5025768;28;20466;-50
2023/09/12 12:05:40;;;;;;;48.97;34.00;;;21.60;34.60;;;;;;5021295;28;20537;-49
2023/09/12 12:08:08;;;;;;;44.00;32.10;;;21.70;99.90;;;;;;5012986;28;20454;-50
2023/09/12 12:10:34;;;;;;;40.47;31.10;;;21.80;1.00;;;;;;5022275;28;20473;-50
2023/09/12 12:13:00;;;;;;;35.63;29.73;;;21.70;99.90;;;;;;5024717;28;20568;-50
2023/09/12 12:15:27;;;;;;;33.57;27.13;;;21.70;1.00;;;;;;5024006;28;20659;-49
2023/09/12 12:17:56;;;;;;;33.47;25.20;;;21.60;99.90;;;;;;5026072;28;20203;-49
2023/09/12 12:20:23;;;;;;;34.17;26.67;;;21.60;1.00;;;;;;5026075;28;21250;-51
2023/09/12 12:22:48;;;;;;;34.00;25.07;;;21.50;99.90;;;;;;5025309;28;20490;-50
2023/09/12 12:25:15;;;;;;;28.10;23.80;;;21.50;9.80;;;;;;5029317;28;20434;-50
2023/09/12 12:27:41;;;;;;;32.80;26.60;;;21.50;1.00;;;;;;5025203;28;20206;-49
2023/09/12 12:30:09;;;;;;;30.97;24.83;;;21.50;1.00;;;;;;5027250;28;20860;-51